Home > Products > Valid Products > TAF

000
FTUS45 KPUB 310303 AAA
TAFCOS
TAF AMD
KCOS 310303Z 3103/3124 35013KT P6SM SCT040 OVC070
     FM311000 35008KT P6SM SCT020 OVC040
     FM311800 VRB06KT P6SM VCSH SCT020 OVC040=



000
FTUS45 KPUB 310303 AAA
TAFCOS
TAF AMD
KCOS 310303Z 3103/3124 35013KT P6SM SCT040 OVC070
     FM311000 35008KT P6SM SCT020 OVC040
     FM311800 VRB06KT P6SM VCSH SCT020 OVC040=



000
FTUS45 KPUB 310300 AAB
TAFALS
TAF AMD
KALS 310300Z 3103/3124 VRB04KT 5SM BR SCT008 OVC015
      TEMPO 3103/3106 2SM -SN BR BKN008
     FM310600 VRB04KT 2SM BR VCSH OVC008
     FM311600 VRB04KT P6SM SCT015 OVC025
     FM311900 VRB04KT P6SM VCSH SCT020 OVC035=



000
FTUS45 KPUB 310300 AAB
TAFALS
TAF AMD
KALS 310300Z 3103/3124 VRB04KT 5SM BR SCT008 OVC015
      TEMPO 3103/3106 2SM -SN BR BKN008
     FM310600 VRB04KT 2SM BR VCSH OVC008
     FM311600 VRB04KT P6SM SCT015 OVC025
     FM311900 VRB04KT P6SM VCSH SCT020 OVC035=



000
FTUS45 KPUB 310131 AAA
TAFALS
TAF AMD
KALS 310131Z 3102/3124 VRB04KT 6SM BR SCT015 OVC025
      TEMPO 3103/3106 2SM BR BKN015
     FM310600 VRB04KT 2SM BR VCSH OVC010
     FM311600 VRB04KT P6SM SCT015 OVC025
     FM311900 VRB04KT P6SM VCSH SCT020 OVC035=



000
FTUS45 KPUB 302330
TAFALS
TAF
KALS 302330Z 3100/3124 VRB04KT 3SM -SN BR SCT008 OVC015
      TEMPO 3100/3103 1SM -SN BR BKN008
     FM310600 VRB04KT 2SM BR VCSH OVC010
     FM311600 VRB04KT P6SM SCT015 OVC025
     FM311900 VRB04KT P6SM VCSH SCT020 OVC035=



000
FTUS45 KPUB 302330
TAFPUB
TAF
KPUB 302330Z 3100/3124 VRB05KT P6SM VCSH SCT040 OVC070
     FM310600 VRB04KT P6SM SCT020 OVC050
     FM311900 VRB04KT P6SM VCSH SCT030 OVC050=



000
FTUS45 KPUB 302330
TAFCOS
TAF
KCOS 302330Z 3100/3124 VRB05KT P6SM SCT060 OVC090
     FM310600 35007KT P6SM OVC060
     FM311100 35006KT P6SM SCT020 OVC040
     FM311800 VRB06KT P6SM VCSH SCT020 OVC040=



000
FTUS45 KPUB 302330
TAFALS
TAF
KALS 302330Z 3100/3124 VRB04KT 3SM -SN BR SCT008 OVC015
      TEMPO 3100/3103 1SM -SN BR BKN008
     FM310600 VRB04KT 2SM BR VCSH OVC010
     FM311600 VRB04KT P6SM SCT015 OVC025
     FM311900 VRB04KT P6SM VCSH SCT020 OVC035=



000
FTUS45 KPUB 302330
TAFPUB
TAF
KPUB 302330Z 3100/3124 VRB05KT P6SM VCSH SCT040 OVC070
     FM310600 VRB04KT P6SM SCT020 OVC050
     FM311900 VRB04KT P6SM VCSH SCT030 OVC050=



000
FTUS45 KPUB 302330
TAFCOS
TAF
KCOS 302330Z 3100/3124 VRB05KT P6SM SCT060 OVC090
     FM310600 35007KT P6SM OVC060
     FM311100 35006KT P6SM SCT020 OVC040
     FM311800 VRB06KT P6SM VCSH SCT020 OVC040=



000
FTUS45 KPUB 302118 AAB
TAFALS
TAF AMD
KALS 302118Z 3021/3118 VRB04KT 3SM -SN BR SCT006 OVC018
      TEMPO 3021/3024 2SM -SN BR BKN006
     FM310300 VRB04KT 5SM -SN BR OVC025
     FM311200 VRB04KT 5SM BR SCT025 OVC040=



000
FTUS45 KPUB 302118 AAB
TAFALS
TAF AMD
KALS 302118Z 3021/3118 VRB04KT 3SM -SN BR SCT006 OVC018
      TEMPO 3021/3024 2SM -SN BR BKN006
     FM310300 VRB04KT 5SM -SN BR OVC025
     FM311200 VRB04KT 5SM BR SCT025 OVC040=



000
FTUS45 KPUB 302020 AAA
TAFALS
TAF AMD
KALS 302020Z 3020/3118 VRB04KT P6SM VCSH SCT015 OVC025
      TEMPO 3020/3024 3SM -SN BR BKN012
     FM310300 VRB04KT 5SM -SN BR OVC025
     FM311200 VRB04KT 5SM BR SCT025 OVC040=



000
FTUS45 KPUB 302020 AAA
TAFALS
TAF AMD
KALS 302020Z 3020/3118 VRB04KT P6SM VCSH SCT015 OVC025
      TEMPO 3020/3024 3SM -SN BR BKN012
     FM310300 VRB04KT 5SM -SN BR OVC025
     FM311200 VRB04KT 5SM BR SCT025 OVC040=



000
FTUS45 KPUB 301723
TAFALS
TAF
KALS 301723Z 3018/3118 VRB04KT P6SM SCT025 OVC060
      TEMPO 3018/3020 5SM -RASN BR BKN022
     FM302000 VRB04KT P6SM VCSH SCT025 OVC060
      TEMPO 3020/3024 6SM -RA BR BKN035
     FM310300 VRB04KT 5SM -SN BR OVC025
     FM311200 VRB04KT 5SM BR SCT025 OVC040=



000
FTUS45 KPUB 301723
TAFPUB
TAF
KPUB 301723Z 3018/3118 VRB05KT P6SM VCSH OVC080
     FM302000 10006KT P6SM VCSH OVC060
      TEMPO 3020/3024 6SM -SHRA BKN040
     FM310000 VRB05KT 5SM -SHRASN BKN040
     FM310300 VRB04KT 4SM -SN BR BKN030
     FM310900 VRB04KT P6SM BKN035=



000
FTUS45 KPUB 301723
TAFCOS
TAF
KCOS 301723Z 3018/3118 VRB04KT P6SM OVC110
     FM302100 VRB06KT P6SM VCSH SCT040 OVC070
     FM310100 36007KT P6SM VCSH SCT030 OVC050
     FM311200 VRB04KT 5SM BR SCT010 OVC035
     FM311600 VRB04KT P6SM SCT040 OVC060=



000
FTUS45 KPUB 301723
TAFCOS
TAF
KCOS 301723Z 3018/3118 VRB04KT P6SM OVC110
     FM302100 VRB06KT P6SM VCSH SCT040 OVC070
     FM310100 36007KT P6SM VCSH SCT030 OVC050
     FM311200 VRB04KT 5SM BR SCT010 OVC035
     FM311600 VRB04KT P6SM SCT040 OVC060=



000
FTUS45 KPUB 301723
TAFPUB
TAF
KPUB 301723Z 3018/3118 VRB05KT P6SM VCSH OVC080
     FM302000 10006KT P6SM VCSH OVC060
      TEMPO 3020/3024 6SM -SHRA BKN040
     FM310000 VRB05KT 5SM -SHRASN BKN040
     FM310300 VRB04KT 4SM -SN BR BKN030
     FM310900 VRB04KT P6SM BKN035=



000
FTUS45 KPUB 301723
TAFALS
TAF
KALS 301723Z 3018/3118 VRB04KT P6SM SCT025 OVC060
      TEMPO 3018/3020 5SM -RASN BR BKN022
     FM302000 VRB04KT P6SM VCSH SCT025 OVC060
      TEMPO 3020/3024 6SM -RA BR BKN035
     FM310300 VRB04KT 5SM -SN BR OVC025
     FM311200 VRB04KT 5SM BR SCT025 OVC040=



000
FTUS45 KPUB 301630 AAB
TAFPUB
TAF AMD
KPUB 301630Z 3017/3112 VRB05KT P6SM OVC090
     FM302000 14006KT P6SM VCSH BKN060
     FM310000 10007KT P6SM VCSH BKN040
     FM310400 01007KT 5SM -SHRASN BR BKN025=



000
FTUS45 KPUB 301535 AAA
TAFALS
TAF AMD
KALS 301535Z 3016/3112 12007KT 4SM BR OVC050
      TEMPO 3016/3018 2SM -SN BR BKN025
     FM301800 19006KT P6SM VCSH SCT020 BKN050
     FM302000 20007KT 3SM -RASN BR BKN015=



000
FTUS45 KPUB 301535 AAA
TAFALS
TAF AMD
KALS 301535Z 3016/3112 12007KT 4SM BR OVC050
      TEMPO 3016/3018 2SM -SN BR BKN025
     FM301800 19006KT P6SM VCSH SCT020 BKN050
     FM302000 20007KT 3SM -RASN BR BKN015=



000
FTUS45 KPUB 301137
TAFALS
TAF
KALS 301137Z 3012/3112 17007KT 3SM BR VCSH SCT010 BKN025
      TEMPO 3012/3016 1 1/2SM -SN BR SCT006 BKN015
     FM301700 19006KT P6SM VCSH SCT020 BKN050
     FM302000 20007KT 3SM -RASN BR BKN015=



000
FTUS45 KPUB 301137
TAFCOS
TAF
KCOS 301137Z 3012/3112 VRB05KT P6SM SCT050 OVC120
     FM301700 14007KT P6SM OVC050
     FM302200 35006KT P6SM VCSH BKN030
     FM310200 01007KT 3SM -SHRASN BR BKN015=



000
FTUS45 KPUB 301137
TAFPUB
TAF
KPUB 301137Z 3012/3112 VRB05KT P6SM OVC150
     FM302000 14006KT P6SM VCSH BKN060
     FM310000 10007KT P6SM VCSH BKN040
     FM310400 01007KT 5SM -SHRASN BR BKN025=



000
FTUS45 KPUB 301137
TAFPUB
TAF
KPUB 301137Z 3012/3112 VRB05KT P6SM OVC150
     FM302000 14006KT P6SM VCSH BKN060
     FM310000 10007KT P6SM VCSH BKN040
     FM310400 01007KT 5SM -SHRASN BR BKN025=



000
FTUS45 KPUB 301137
TAFALS
TAF
KALS 301137Z 3012/3112 17007KT 3SM BR VCSH SCT010 BKN025
      TEMPO 3012/3016 1 1/2SM -SN BR SCT006 BKN015
     FM301700 19006KT P6SM VCSH SCT020 BKN050
     FM302000 20007KT 3SM -RASN BR BKN015=



000
FTUS45 KPUB 301137
TAFCOS
TAF
KCOS 301137Z 3012/3112 VRB05KT P6SM SCT050 OVC120
     FM301700 14007KT P6SM OVC050
     FM302200 35006KT P6SM VCSH BKN030
     FM310200 01007KT 3SM -SHRASN BR BKN015=



000
FTUS45 KPUB 301012 AAB
TAFALS
TAF AMD
KALS 301012Z 3010/3106 17007KT 4SM BR VCSH SCT010 BKN025
      TEMPO 3010/3014 1 1/2SM -SN BR SCT006 BKN015
     FM301700 19006KT P6SM VCSH SCT020 BKN050
     FM302000 20007KT 3SM -RASN BR BKN015=



000
FTUS45 KPUB 301012 AAB
TAFALS
TAF AMD
KALS 301012Z 3010/3106 17007KT 4SM BR VCSH SCT010 BKN025
      TEMPO 3010/3014 1 1/2SM -SN BR SCT006 BKN015
     FM301700 19006KT P6SM VCSH SCT020 BKN050
     FM302000 20007KT 3SM -RASN BR BKN015=



000
FTUS45 KPUB 300903 AAA
TAFCOS
TAF AMD
KCOS 300903Z 3009/3106 VRB05KT P6SM SCT050 OVC120
     FM301100 13006KT P6SM BKN030
     FM301600 14007KT P6SM OVC050
     FM302200 35006KT P6SM VCSH BKN020
     FM310200 02007KT 3SM -SHRASN BR BKN015=



000
FTUS45 KPUB 300903 AAA
TAFCOS
TAF AMD
KCOS 300903Z 3009/3106 VRB05KT P6SM SCT050 OVC120
     FM301100 13006KT P6SM BKN030
     FM301600 14007KT P6SM OVC050
     FM302200 35006KT P6SM VCSH BKN020
     FM310200 02007KT 3SM -SHRASN BR BKN015=



000
FTUS45 KPUB 300759 AAA
TAFALS
TAF AMD
KALS 300759Z 3008/3106 17007KT P6SM VCSH OVC050
      TEMPO 3008/3010 2SM -SN BR FEW008 BKN020
     FM301000 VRB04KT 4SM BR VCSH SCT010 BKN025
     FM301700 19006KT P6SM VCSH SCT020 BKN050
     FM302000 20007KT 3SM -RASN BR BKN015=



000
FTUS45 KPUB 300759 AAA
TAFALS
TAF AMD
KALS 300759Z 3008/3106 17007KT P6SM VCSH OVC050
      TEMPO 3008/3010 2SM -SN BR FEW008 BKN020
     FM301000 VRB04KT 4SM BR VCSH SCT010 BKN025
     FM301700 19006KT P6SM VCSH SCT020 BKN050
     FM302000 20007KT 3SM -RASN BR BKN015=



000
FTUS45 KPUB 300529
TAFCOS
TAF
KCOS 300529Z 3006/3106 VRB05KT P6SM SCT050 OVC150
     FM300900 13006KT P6SM BKN030
     FM301600 14007KT P6SM OVC050
     FM302200 35006KT P6SM VCSH BKN020
     FM310200 02007KT 3SM -SHRASN BR BKN015=



000
FTUS45 KPUB 300529
TAFPUB
TAF
KPUB 300529Z 3006/3106 VRB05KT P6SM OVC150
     FM301900 14006KT P6SM VCSH BKN050
     FM302300 10007KT P6SM VCSH BKN030=



000
FTUS45 KPUB 300529
TAFPUB
TAF
KPUB 300529Z 3006/3106 VRB05KT P6SM OVC150
     FM301900 14006KT P6SM VCSH BKN050
     FM302300 10007KT P6SM VCSH BKN030=



000
FTUS45 KPUB 300529
TAFALS
TAF
KALS 300529Z 3006/3106 VRB05KT P6SM VCSH OVC050
     FM301000 VRB04KT 4SM BR VCSH SCT010 BKN025
     FM301700 19006KT P6SM VCSH SCT020 BKN050
     FM302000 20007KT 3SM -RASN BR BKN015=



000
FTUS45 KPUB 300529
TAFCOS
TAF
KCOS 300529Z 3006/3106 VRB05KT P6SM SCT050 OVC150
     FM300900 13006KT P6SM BKN030
     FM301600 14007KT P6SM OVC050
     FM302200 35006KT P6SM VCSH BKN020
     FM310200 02007KT 3SM -SHRASN BR BKN015=



000
FTUS45 KPUB 300529
TAFALS
TAF
KALS 300529Z 3006/3106 VRB05KT P6SM VCSH OVC050
     FM301000 VRB04KT 4SM BR VCSH SCT010 BKN025
     FM301700 19006KT P6SM VCSH SCT020 BKN050
     FM302000 20007KT 3SM -RASN BR BKN015=



000
FTUS45 KPUB 292325
TAFCOS
TAF
KCOS 292325Z 3000/3024 18012KT P6SM SCT050 OVC200
     FM300200 13007KT P6SM SCT050 OVC200
     FM300500 VRB05KT P6SM SCT050 OVC150
     FM300900 VRB05KT P6SM SCT030 OVC080
     FM301900 14007KT P6SM OVC050=



000
FTUS45 KPUB 292325
TAFPUB
TAF
KPUB 292325Z 3000/3024 15007KT P6SM SCT070 OVC200
     FM300300 VRB05KT P6SM SCT070 OVC150
     FM300700 VRB04KT P6SM BKN070 OVC150
     FM301900 VRB06KT P6SM VCSH BKN050=



000
FTUS45 KPUB 292325
TAFALS
TAF
KALS 292325Z 3000/3024 16010KT P6SM BKN040 OVC200
     FM300600 VRB05KT P6SM VCSH SCT020 BKN040
     FM301200 VRB04KT 4SM BR VCSH SCT010 BKN025
     FM301700 19006KT P6SM VCSH SCT020 BKN050=



000
FTUS45 KPUB 292325
TAFALS
TAF
KALS 292325Z 3000/3024 16010KT P6SM BKN040 OVC200
     FM300600 VRB05KT P6SM VCSH SCT020 BKN040
     FM301200 VRB04KT 4SM BR VCSH SCT010 BKN025
     FM301700 19006KT P6SM VCSH SCT020 BKN050=



000
FTUS45 KPUB 292325
TAFPUB
TAF
KPUB 292325Z 3000/3024 15007KT P6SM SCT070 OVC200
     FM300300 VRB05KT P6SM SCT070 OVC150
     FM300700 VRB04KT P6SM BKN070 OVC150
     FM301900 VRB06KT P6SM VCSH BKN050=



000
FTUS45 KPUB 292325
TAFCOS
TAF
KCOS 292325Z 3000/3024 18012KT P6SM SCT050 OVC200
     FM300200 13007KT P6SM SCT050 OVC200
     FM300500 VRB05KT P6SM SCT050 OVC150
     FM300900 VRB05KT P6SM SCT030 OVC080
     FM301900 14007KT P6SM OVC050=



000
FTUS45 KPUB 292215 AAA
TAFALS
TAF AMD
KALS 292215Z 2922/3018 16012KT P6SM SCT040 BKN200
     FM300200 17006KT P6SM VCSH SCT030 BKN080
     FM301300 VRB04KT P6SM SCT030 BKN080=



000
FTUS45 KPUB 292215 AAA
TAFALS
TAF AMD
KALS 292215Z 2922/3018 16012KT P6SM SCT040 BKN200
     FM300200 17006KT P6SM VCSH SCT030 BKN080
     FM301300 VRB04KT P6SM SCT030 BKN080=



000
FTUS45 KPUB 291723
TAFPUB
TAF
KPUB 291723Z 2918/3018 VRB05KT P6SM OVC070
     FM292100 11006KT P6SM SCT070 BKN200
     FM300600 VRB05KT P6SM SCT070 BKN130
     FM301600 VRB05KT P6SM OVC080=



000
FTUS45 KPUB 291723
TAFALS
TAF
KALS 291723Z 2918/3018 VRB05KT P6SM FEW120 BKN200
     FM300200 17006KT P6SM VCSH SCT030 BKN080
     FM301300 VRB04KT P6SM SCT030 BKN080=



000
FTUS45 KPUB 291723
TAFCOS
TAF
KCOS 291723Z 2918/3018 16008KT P6SM BKN040 OVC060
     FM292100 17010KT P6SM SCT050 BKN200
     FM300200 VRB05KT P6SM BKN200
     FM300600 VRB05KT P6SM SCT040 BKN150
     FM301100 VRB05KT P6SM BKN090=



000
FTUS45 KPUB 291723
TAFPUB
TAF
KPUB 291723Z 2918/3018 VRB05KT P6SM OVC070
     FM292100 11006KT P6SM SCT070 BKN200
     FM300600 VRB05KT P6SM SCT070 BKN130
     FM301600 VRB05KT P6SM OVC080=



000
FTUS45 KPUB 291723
TAFALS
TAF
KALS 291723Z 2918/3018 VRB05KT P6SM FEW120 BKN200
     FM300200 17006KT P6SM VCSH SCT030 BKN080
     FM301300 VRB04KT P6SM SCT030 BKN080=



000
FTUS45 KPUB 291723
TAFCOS
TAF
KCOS 291723Z 2918/3018 16008KT P6SM BKN040 OVC060
     FM292100 17010KT P6SM SCT050 BKN200
     FM300200 VRB05KT P6SM BKN200
     FM300600 VRB05KT P6SM SCT040 BKN150
     FM301100 VRB05KT P6SM BKN090=



000
FTUS45 KPUB 291421 AAA
TAFCOS
TAF AMD
KCOS 291421Z 2914/3012 VRB05KT P6SM VCSH BKN035 OVC040
     FM291700 16008KT P6SM SCT020 BKN040
     FM300300 14005KT P6SM SCT030 BKN050=



000
FTUS45 KPUB 291421 AAA
TAFPUB
TAF AMD
KPUB 291421Z 2914/3012 10004KT P6SM OVC060
     FM291800 12006KT P6SM SCT040 BKN060
     FM300300 VRB05KT P6SM SCT050 BKN070=



000
FTUS45 KPUB 291421 AAA
TAFPUB
TAF AMD
KPUB 291421Z 2914/3012 10004KT P6SM OVC060
     FM291800 12006KT P6SM SCT040 BKN060
     FM300300 VRB05KT P6SM SCT050 BKN070=



000
FTUS45 KPUB 291120
TAFALS
TAF
KALS 291120Z 2912/3012 VRB05KT P6SM SCT110 OVC250
     FM291800 18007KT P6SM SCT050 BKN110
     FM292100 16007KT P6SM VCSH BKN050
     FM300800 VRB05KT P6SM BKN030 PROB30 3008/3012 3SM -SHSN BKN015=



000
FTUS45 KPUB 291120
TAFCOS
TAF
KCOS 291120Z 2912/3012 35007KT P6SM BKN050 BKN080
     FM291700 16008KT P6SM SCT020 BKN040
     FM300300 14005KT P6SM SCT030 BKN050=



000
FTUS45 KPUB 291120
TAFALS
TAF
KALS 291120Z 2912/3012 VRB05KT P6SM SCT110 OVC250
     FM291800 18007KT P6SM SCT050 BKN110
     FM292100 16007KT P6SM VCSH BKN050
     FM300800 VRB05KT P6SM BKN030 PROB30 3008/3012 3SM -SHSN BKN015=



000
FTUS45 KPUB 291120
TAFPUB
TAF
KPUB 291120Z 2912/3012 10004KT P6SM BKN050 OVC100
     FM291800 12006KT P6SM SCT040 BKN060
     FM300300 VRB05KT P6SM SCT050 BKN070=



000
FTUS45 KPUB 291120
TAFPUB
TAF
KPUB 291120Z 2912/3012 10004KT P6SM BKN050 OVC100
     FM291800 12006KT P6SM SCT040 BKN060
     FM300300 VRB05KT P6SM SCT050 BKN070=



000
FTUS45 KPUB 291120
TAFCOS
TAF
KCOS 291120Z 2912/3012 35007KT P6SM BKN050 BKN080
     FM291700 16008KT P6SM SCT020 BKN040
     FM300300 14005KT P6SM SCT030 BKN050=



000
FTUS45 KPUB 290600 AAA
TAFCOS
TAF AMD
KCOS 290600Z 2906/3006 34009KT P6SM FEW035 SCT080 BKN250
     FM290900 34009KT P6SM BKN060
     FM291300 36008KT P6SM SCT020 BKN035
     FM291700 13008KT P6SM SCT020 BKN050
     FM292100 17009KT P6SM SCT050 BKN140
     FM300300 15005KT P6SM SCT030 BKN050=



000
FTUS45 KPUB 290600 AAA
TAFCOS
TAF AMD
KCOS 290600Z 2906/3006 34009KT P6SM FEW035 SCT080 BKN250
     FM290900 34009KT P6SM BKN060
     FM291300 36008KT P6SM SCT020 BKN035
     FM291700 13008KT P6SM SCT020 BKN050
     FM292100 17009KT P6SM SCT050 BKN140
     FM300300 15005KT P6SM SCT030 BKN050=



000
FTUS45 KPUB 290529
TAFALS
TAF
KALS 290529Z 2906/3006 VRB04KT P6SM BKN200
     FM291200 VRB03KT P6SM SCT030 BKN150
     FM291700 20007KT P6SM BKN110
     FM300200 13006KT P6SM BKN030 PROB30 3002/3006 3SM -SHSN BKN015=



000
FTUS45 KPUB 290529
TAFCOS
TAF
KCOS 290529Z 2906/3006 02009KT P6SM FEW090 SCT250
     FM290900 34009KT P6SM BKN060
     FM291300 36008KT P6SM SCT020 BKN035
     FM291700 13008KT P6SM SCT020 BKN050
     FM292100 17009KT P6SM SCT050 BKN140
     FM300300 15005KT P6SM SCT030 BKN050=



000
FTUS45 KPUB 290529
TAFPUB
TAF
KPUB 290529Z 2906/3006 VRB06KT P6SM SCT200
     FM290900 33006KT P6SM BKN080 BKN200
     FM291400 VRB05KT P6SM OVC040
     FM292000 11006KT P6SM SCT060 BKN150
     FM300300 09006KT P6SM SCT025 BKN040=



000
FTUS45 KPUB 290529
TAFALS
TAF
KALS 290529Z 2906/3006 VRB04KT P6SM BKN200
     FM291200 VRB03KT P6SM SCT030 BKN150
     FM291700 20007KT P6SM BKN110
     FM300200 13006KT P6SM BKN030 PROB30 3002/3006 3SM -SHSN BKN015=



000
FTUS45 KPUB 290529
TAFPUB
TAF
KPUB 290529Z 2906/3006 VRB06KT P6SM SCT200
     FM290900 33006KT P6SM BKN080 BKN200
     FM291400 VRB05KT P6SM OVC040
     FM292000 11006KT P6SM SCT060 BKN150
     FM300300 09006KT P6SM SCT025 BKN040=



000
FTUS45 KPUB 290529
TAFCOS
TAF
KCOS 290529Z 2906/3006 02009KT P6SM FEW090 SCT250
     FM290900 34009KT P6SM BKN060
     FM291300 36008KT P6SM SCT020 BKN035
     FM291700 13008KT P6SM SCT020 BKN050
     FM292100 17009KT P6SM SCT050 BKN140
     FM300300 15005KT P6SM SCT030 BKN050=



000
FTUS45 KPUB 290303 AAB
TAFPUB
TAF AMD
KPUB 290303Z 2903/2924 VRB06KT P6SM SCT200
     FM290900 33006KT P6SM BKN080 BKN200
     FM291400 VRB05KT P6SM OVC040
     FM292000 11006KT P6SM SCT060 BKN150=



000
FTUS45 KPUB 290303 AAB
TAFPUB
TAF AMD
KPUB 290303Z 2903/2924 VRB06KT P6SM SCT200
     FM290900 33006KT P6SM BKN080 BKN200
     FM291400 VRB05KT P6SM OVC040
     FM292000 11006KT P6SM SCT060 BKN150=



000
FTUS45 KPUB 290254 AAA
TAFCOS
TAF AMD
KCOS 290254Z 2903/2924 02009KT P6SM FEW090 SCT250
     FM290900 34009KT P6SM BKN060
     FM291300 36008KT P6SM SCT020 BKN035
     FM291700 13008KT P6SM SCT020 BKN050
     FM292100 17009KT P6SM SCT050 BKN140=



000
FTUS45 KPUB 290254 AAA
TAFCOS
TAF AMD
KCOS 290254Z 2903/2924 02009KT P6SM FEW090 SCT250
     FM290900 34009KT P6SM BKN060
     FM291300 36008KT P6SM SCT020 BKN035
     FM291700 13008KT P6SM SCT020 BKN050
     FM292100 17009KT P6SM SCT050 BKN140=



000
FTUS45 KPUB 290132 AAA
TAFPUB
TAF AMD
KPUB 290132Z 2902/2924 01012KT P6SM SCT200
     FM290900 33006KT P6SM BKN080 BKN200
     FM291400 VRB05KT P6SM OVC040
     FM292000 11006KT P6SM SCT060 BKN150=



000
FTUS45 KPUB 290132 AAA
TAFPUB
TAF AMD
KPUB 290132Z 2902/2924 01012KT P6SM SCT200
     FM290900 33006KT P6SM BKN080 BKN200
     FM291400 VRB05KT P6SM OVC040
     FM292000 11006KT P6SM SCT060 BKN150=



000
FTUS45 KPUB 282336
TAFALS
TAF
KALS 282336Z 2900/2924 05008KT P6SM SCT120 BKN200
     FM290300 VRB04KT P6SM BKN200
     FM291200 VRB03KT P6SM SCT030 BKN150
     FM291700 20007KT P6SM BKN110=



000
FTUS45 KPUB 282336
TAFPUB
TAF
KPUB 282336Z 2900/2924 32013KT P6SM SCT250
     FM290200 35009KT P6SM SCT250
     FM290900 33006KT P6SM BKN080 BKN200
     FM291400 VRB05KT P6SM OVC040
     FM292000 11006KT P6SM SCT060 BKN150=



000
FTUS45 KPUB 282336
TAFCOS
TAF
KCOS 282336Z 2900/2924 31012G25KT P6SM FEW080 SCT250
     FM290300 35012KT P6SM FEW090 SCT250
     FM290900 34009KT P6SM BKN060
     FM291300 36008KT P6SM SCT020 BKN035
     FM291700 13008KT P6SM SCT020 BKN050
     FM292100 17009KT P6SM SCT050 BKN140=



000
FTUS45 KPUB 282336
TAFCOS
TAF
KCOS 282336Z 2900/2924 31012G25KT P6SM FEW080 SCT250
     FM290300 35012KT P6SM FEW090 SCT250
     FM290900 34009KT P6SM BKN060
     FM291300 36008KT P6SM SCT020 BKN035
     FM291700 13008KT P6SM SCT020 BKN050
     FM292100 17009KT P6SM SCT050 BKN140=



000
FTUS45 KPUB 282336
TAFALS
TAF
KALS 282336Z 2900/2924 05008KT P6SM SCT120 BKN200
     FM290300 VRB04KT P6SM BKN200
     FM291200 VRB03KT P6SM SCT030 BKN150
     FM291700 20007KT P6SM BKN110=



000
FTUS45 KPUB 282336
TAFPUB
TAF
KPUB 282336Z 2900/2924 32013KT P6SM SCT250
     FM290200 35009KT P6SM SCT250
     FM290900 33006KT P6SM BKN080 BKN200
     FM291400 VRB05KT P6SM OVC040
     FM292000 11006KT P6SM SCT060 BKN150=



000
FTUS45 KPUB 282250 AAB
TAFPUB
TAF AMD
KPUB 282250Z 2823/2918 32014KT P6SM FEW140 BKN250
     FM290200 34009KT P6SM BKN250
     FM290800 33006KT P6SM BKN060
     FM291500 VRB04KT P6SM BKN040=



000
FTUS45 KPUB 282250 AAB
TAFPUB
TAF AMD
KPUB 282250Z 2823/2918 32014KT P6SM FEW140 BKN250
     FM290200 34009KT P6SM BKN250
     FM290800 33006KT P6SM BKN060
     FM291500 VRB04KT P6SM BKN040=



000
FTUS45 KPUB 282148 AAA
TAFCOS
TAF AMD
KCOS 282148Z 2822/2918 30016G26KT P6SM FEW090 SCT250
     FM290100 35012KT P6SM FEW120 SCT250
     FM290800 33007KT P6SM BKN060
     FM291300 35008KT P6SM SCT020 OVC040
     FM291700 14008KT P6SM BKN040 BKN130=



000
FTUS45 KPUB 282148 AAA
TAFCOS
TAF AMD
KCOS 282148Z 2822/2918 30016G26KT P6SM FEW090 SCT250
     FM290100 35012KT P6SM FEW120 SCT250
     FM290800 33007KT P6SM BKN060
     FM291300 35008KT P6SM SCT020 OVC040
     FM291700 14008KT P6SM BKN040 BKN130=



000
FTUS45 KPUB 281725
TAFALS
TAF
KALS 281725Z 2818/2918 VRB05KT P6SM FEW110
     FM282100 25009KT P6SM FEW110 SCT200
     FM290600 VRB03KT P6SM SCT030 BKN150
     FM291300 VRB03KT P6SM SCT030 BKN090=



000
FTUS45 KPUB 281725
TAFPUB
TAF
KPUB 281725Z 2818/2918 30016G26KT P6SM SKC
     FM282100 31016G26KT P6SM FEW140 SCT250
     FM290100 35009KT P6SM SCT250
     FM290800 33006KT P6SM BKN060
     FM291500 VRB04KT P6SM BKN040=



000
FTUS45 KPUB 281725
TAFCOS
TAF
KCOS 281725Z 2818/2918 31020G30KT P6SM SKC
     FM282100 32020G30KT P6SM FEW120 SCT250
     FM290100 35012KT P6SM FEW120 SCT250
     FM290800 33007KT P6SM BKN060
     FM291300 35008KT P6SM SCT020 OVC040
     FM291700 14008KT P6SM BKN040 BKN130=



000
FTUS45 KPUB 281725
TAFCOS
TAF
KCOS 281725Z 2818/2918 31020G30KT P6SM SKC
     FM282100 32020G30KT P6SM FEW120 SCT250
     FM290100 35012KT P6SM FEW120 SCT250
     FM290800 33007KT P6SM BKN060
     FM291300 35008KT P6SM SCT020 OVC040
     FM291700 14008KT P6SM BKN040 BKN130=



000
FTUS45 KPUB 281725
TAFPUB
TAF
KPUB 281725Z 2818/2918 30016G26KT P6SM SKC
     FM282100 31016G26KT P6SM FEW140 SCT250
     FM290100 35009KT P6SM SCT250
     FM290800 33006KT P6SM BKN060
     FM291500 VRB04KT P6SM BKN040=



000
FTUS45 KPUB 281725
TAFALS
TAF
KALS 281725Z 2818/2918 VRB05KT P6SM FEW110
     FM282100 25009KT P6SM FEW110 SCT200
     FM290600 VRB03KT P6SM SCT030 BKN150
     FM291300 VRB03KT P6SM SCT030 BKN090=



000
FTUS45 KPUB 281120
TAFPUB
TAF
KPUB 281120Z 2812/2912 29015G25KT P6SM SCT150 BKN250
     FM290300 01015G25KT P6SM SCT120 BKN250
     FM291100 03010KT P6SM SCT025=



000
FTUS45 KPUB 281120
TAFCOS
TAF
KCOS 281120Z 2812/2912 33012G22KT P6SM SCT150 BKN250
     FM290000 36015G25KT P6SM SCT100 BKN250
     FM291000 35010KT P6SM SCT015=



000
FTUS45 KPUB 281120
TAFALS
TAF
KALS 281120Z 2812/2912 VRB05KT P6SM SCT150 BKN250
     FM282000 35006KT P6SM FEW150 SCT250
     FM290600 15006KT 3SM BR SCT003=



000
FTUS45 KPUB 281120
TAFCOS
TAF
KCOS 281120Z 2812/2912 33012G22KT P6SM SCT150 BKN250
     FM290000 36015G25KT P6SM SCT100 BKN250
     FM291000 35010KT P6SM SCT015=



000
FTUS45 KPUB 281120
TAFPUB
TAF
KPUB 281120Z 2812/2912 29015G25KT P6SM SCT150 BKN250
     FM290300 01015G25KT P6SM SCT120 BKN250
     FM291100 03010KT P6SM SCT025=



000
FTUS45 KPUB 281120
TAFALS
TAF
KALS 281120Z 2812/2912 VRB05KT P6SM SCT150 BKN250
     FM282000 35006KT P6SM FEW150 SCT250
     FM290600 15006KT 3SM BR SCT003=



000
FTUS45 KPUB 280523
TAFCOS
TAF
KCOS 280523Z 2806/2906 30009KT P6SM SCT200
     FM281800 33012G22KT P6SM SCT200
     FM290100 33012KT P6SM SCT100 BKN150=



000
FTUS45 KPUB 280523
TAFALS
TAF
KALS 280523Z 2806/2906 VRB05KT P6SM SCT200
     FM281800 28007KT P6SM SCT100 SCT200=



000
FTUS45 KPUB 280523
TAFPUB
TAF
KPUB 280523Z 2806/2906 29012KT P6SM SCT200
     FM281900 30013G23KT P6SM SCT200
     FM290200 34009KT P6SM SCT100 BKN200=



000
FTUS45 KPUB 280523
TAFPUB
TAF
KPUB 280523Z 2806/2906 29012KT P6SM SCT200
     FM281900 30013G23KT P6SM SCT200
     FM290200 34009KT P6SM SCT100 BKN200=



000
FTUS45 KPUB 280523
TAFCOS
TAF
KCOS 280523Z 2806/2906 30009KT P6SM SCT200
     FM281800 33012G22KT P6SM SCT200
     FM290100 33012KT P6SM SCT100 BKN150=



000
FTUS45 KPUB 280523
TAFALS
TAF
KALS 280523Z 2806/2906 VRB05KT P6SM SCT200
     FM281800 28007KT P6SM SCT100 SCT200=



    US Dept of Commerce
    National Oceanic and Atmospheric Administration
    National Weather Service
    1325 East West Highway
    Silver Spring, MD 20910
    Page Author: NWS Internet Services Team
Disclaimer
Information Quality
Credits
Glossary
Privacy Policy
Freedom of Information Act (FOIA)
About Us
Career Opportunities